Time;durP1;ratioP1;P1;durP2;ratioP2;P2;SDS_P1;SDS_P2;PMS_P1;PMS_P2;Temp;Humidity;BMP_temperature;BMP_pressure;BME280_temperature;BME280_humidity;BME280_pressure;Samples;Min_cycle;Max_cycle;Signal;HPM_P1;HPM_P2
2023/03/25 05:03:53;;;;;;;1.63;1.52;;;7.50;99.90;;;;;;6130006;23;20192;-67
2023/03/25 05:06:18;;;;;;;0.40;0.40;;;7.50;99.90;;;;;;4959070;28;20471;-64
2023/03/25 05:08:44;;;;;;;1.27;0.60;;;7.40;99.90;;;;;;4957468;28;20262;-62
2023/03/25 05:11:10;;;;;;;0.50;0.40;;;7.40;99.90;;;;;;4957664;28;20184;-65
2023/03/25 05:13:35;;;;;;;0.60;0.60;;;7.40;99.90;;;;;;4957180;28;20172;-65
2023/03/25 05:16:01;;;;;;;0.40;0.40;;;7.40;99.90;;;;;;4957533;28;20223;-66
2023/03/25 05:18:26;;;;;;;1.13;0.60;;;7.40;99.90;;;;;;4957459;28;20519;-65
2023/03/25 05:20:54;;;;;;;0.40;0.40;;;7.40;99.90;;;;;;4957394;28;20173;-64
2023/03/25 05:23:20;;;;;;;0.50;0.50;;;7.40;99.90;;;;;;4956260;28;20176;-65
2023/03/25 05:25:49;;;;;;;0.40;0.40;;;7.40;99.90;;;;;;4956658;28;20212;-65
2023/03/25 05:28:15;;;;;;;0.30;0.30;;;7.50;99.90;;;;;;4957231;28;20231;-63
2023/03/25 05:30:44;;;;;;;0.95;0.43;;;7.60;99.90;;;;;;4957092;28;20689;-62
2023/03/25 05:33:15;;;;;;;0.40;0.30;;;7.70;99.90;;;;;;4956300;28;20180;-65
2023/03/25 05:35:41;;;;;;;0.40;0.40;;;7.80;99.90;;;;;;4954834;29;20189;-63
2023/03/25 05:38:08;;;;;;;0.55;0.55;;;7.80;99.90;;;;;;4956758;28;20638;-64
2023/03/25 05:40:34;;;;;;;0.68;0.30;;;7.90;99.90;;;;;;4957268;28;20571;-65
2023/03/25 05:43:02;;;;;;;0.43;0.43;;;8.00;99.90;;;;;;4956629;28;20208;-65
2023/03/25 05:45:27;;;;;;;0.90;0.55;;;8.00;99.90;;;;;;4956686;28;20622;-65
2023/03/25 05:47:53;;;;;;;0.80;0.67;;;8.10;99.90;;;;;;4956729;28;20200;-64
2023/03/25 05:50:20;;;;;;;0.57;0.57;;;8.10;99.90;;;;;;4956518;28;20455;-64
2023/03/25 05:52:48;;;;;;;0.35;0.35;;;8.10;99.90;;;;;;4956716;28;20168;-67
2023/03/25 05:55:20;;;;;;;0.47;0.40;;;8.20;99.90;;;;;;4956169;28;20679;-64
2023/03/25 05:57:46;;;;;;;0.80;0.80;;;8.20;99.90;;;;;;4956717;28;20189;-66
2023/03/25 06:00:14;;;;;;;0.40;0.40;;;8.30;99.90;;;;;;4956541;28;20655;-63
2023/03/25 06:02:41;;;;;;;0.30;0.30;;;8.30;99.90;;;;;;4956274;28;20736;-64
2023/03/25 06:05:09;;;;;;;0.55;0.50;;;8.40;99.90;;;;;;4955663;28;20196;-63
2023/03/25 06:07:38;;;;;;;1.23;1.10;;;8.40;99.90;;;;;;4955324;28;20208;-64
2023/03/25 06:10:04;;;;;;;0.57;0.57;;;8.50;99.90;;;;;;4956325;28;20180;-65
2023/03/25 06:12:32;;;;;;;1.13;0.80;;;8.60;99.90;;;;;;4956305;28;20267;-67
2023/03/25 06:14:58;;;;;;;0.50;0.50;;;8.60;99.90;;;;;;4955417;28;20539;-65
2023/03/25 06:17:24;;;;;;;0.50;0.50;;;8.70;99.90;;;;;;4955956;28;20710;-65
2023/03/25 06:19:52;;;;;;;1.13;0.70;;;8.80;99.90;;;;;;4955833;28;20224;-68
2023/03/25 06:22:21;;;;;;;0.70;0.70;;;8.90;99.90;;;;;;4956167;28;20185;-63
2023/03/25 06:24:47;;;;;;;0.60;0.57;;;8.90;99.90;;;;;;4955582;28;20192;-64
2023/03/25 06:27:16;;;;;;;0.40;0.40;;;8.90;99.90;;;;;;4955796;28;20201;-66
2023/03/25 06:29:42;;;;;;;1.40;0.70;;;9.00;99.90;;;;;;4955665;28;20177;-66
2023/03/25 06:32:10;;;;;;;1.70;0.60;;;9.00;99.90;;;;;;4956045;28;20710;-65
2023/03/25 06:34:36;;;;;;;0.73;0.73;;;9.00;99.90;;;;;;4955615;28;20217;-66
2023/03/25 06:37:02;;;;;;;0.67;0.60;;;9.00;99.90;;;;;;4955832;28;20181;-64
2023/03/25 06:39:30;;;;;;;0.50;0.47;;;9.10;99.90;;;;;;4955991;28;20184;-66
2023/03/25 06:41:56;;;;;;;1.35;1.05;;;9.10;99.90;;;;;;4955641;28;20503;-64
2023/03/25 06:44:22;;;;;;;0.98;0.47;;;9.10;99.90;;;;;;4955077;28;20291;-67
2023/03/25 06:46:48;;;;;;;1.00;0.50;;;9.20;99.90;;;;;;4955816;28;20367;-65
2023/03/25 06:49:13;;;;;;;1.37;0.57;;;9.30;99.90;;;;;;4955786;28;20251;-66
2023/03/25 06:51:39;;;;;;;0.60;0.60;;;9.70;99.90;;;;;;4954492;28;20181;-65
2023/03/25 06:54:05;;;;;;;1.57;0.60;;;10.20;99.90;;;;;;4955270;28;20189;-65
2023/03/25 06:56:30;;;;;;;0.60;0.60;;;10.80;99.90;;;;;;4955310;28;20186;-64
2023/03/25 06:58:56;;;;;;;0.83;0.80;;;11.20;99.90;;;;;;4955243;28;20189;-65
2023/03/25 07:01:21;;;;;;;0.70;0.43;;;11.30;99.90;;;;;;4955675;28;20189;-66
2023/03/25 07:03:47;;;;;;;0.50;0.33;;;11.40;99.90;;;;;;4953793;28;20187;-64
2023/03/25 07:06:19;;;;;;;1.40;0.80;;;11.30;99.90;;;;;;4955089;28;20211;-64
2023/03/25 07:08:45;;;;;;;0.53;0.50;;;11.30;99.90;;;;;;4955601;28;20180;-66
2023/03/25 07:11:12;;;;;;;1.40;0.57;;;11.60;99.90;;;;;;4955183;28;20426;-66
2023/03/25 07:13:38;;;;;;;0.40;0.40;;;12.10;99.90;;;;;;4954696;28;20431;-68
2023/03/25 07:16:04;;;;;;;0.60;0.60;;;12.60;99.90;;;;;;4955457;28;20409;-65
2023/03/25 07:18:30;;;;;;;0.50;0.50;;;13.40;99.90;;;;;;4954416;28;20611;-65
2023/03/25 07:20:56;;;;;;;1.60;0.70;;;14.00;99.90;;;;;;4955074;28;20445;-66
2023/03/25 07:23:21;;;;;;;0.70;0.70;;;14.30;99.90;;;;;;4954844;28;20187;-69
2023/03/25 07:25:47;;;;;;;1.13;0.80;;;14.10;99.90;;;;;;4954981;28;20212;-69
2023/03/25 07:28:13;;;;;;;0.57;0.37;;;13.90;99.90;;;;;;4955122;28;20183;-67
2023/03/25 07:30:38;;;;;;;0.50;0.40;;;13.60;99.90;;;;;;4955245;28;20698;-65
2023/03/25 07:33:04;;;;;;;0.77;0.77;;;13.20;99.90;;;;;;4953534;28;20184;-69
2023/03/25 07:35:30;;;;;;;0.47;0.47;;;12.70;99.90;;;;;;4955082;28;20567;-65
2023/03/25 07:37:56;;;;;;;0.80;0.70;;;12.40;99.90;;;;;;4953995;28;20424;-68
2023/03/25 07:40:22;;;;;;;1.60;0.87;;;12.20;99.90;;;;;;4955094;28;20234;-67
2023/03/25 07:42:47;;;;;;;0.30;0.30;;;12.10;99.90;;;;;;4953693;29;20184;-68
2023/03/25 07:45:13;;;;;;;0.40;0.40;;;12.20;99.90;;;;;;4954441;28;20654;-65
2023/03/25 07:47:39;;;;;;;0.60;0.60;;;12.70;99.90;;;;;;4954978;28;20213;-66
2023/03/25 07:50:05;;;;;;;0.73;0.53;;;13.60;99.90;;;;;;4955232;28;20175;-66
2023/03/25 07:52:31;;;;;;;1.03;1.00;;;14.80;99.90;;;;;;4955237;28;20551;-67
2023/03/25 07:54:57;;;;;;;0.40;0.40;;;15.60;99.00;;;;;;4954452;28;20432;-67
2023/03/25 07:57:23;;;;;;;1.40;0.97;;;16.20;97.30;;;;;;4954897;28;20193;-65
2023/03/25 07:59:48;;;;;;;0.70;0.67;;;16.90;97.00;;;;;;4954892;28;20759;-68
2023/03/25 08:02:14;;;;;;;1.30;0.77;;;18.00;95.20;;;;;;4954929;28;20231;-67
2023/03/25 08:04:40;;;;;;;0.93;0.40;;;18.60;93.50;;;;;;4954352;28;20194;-65
2023/03/25 08:07:06;;;;;;;1.37;0.60;;;18.60;91.80;;;;;;4954892;28;21021;-65
2023/03/25 08:09:32;;;;;;;0.70;0.60;;;18.20;92.40;;;;;;4958303;28;20416;-66
2023/03/25 08:11:58;;;;;;;0.60;0.60;;;18.00;93.20;;;;;;4958172;28;20433;-67
2023/03/25 08:14:24;;;;;;;0.90;0.40;;;17.80;92.50;;;;;;4958036;28;20435;-69
2023/03/25 08:16:50;;;;;;;0.60;0.60;;;17.50;92.80;;;;;;4958730;28;20197;-68
2023/03/25 08:19:15;;;;;;;0.60;0.50;;;17.00;93.00;;;;;;4958390;28;20580;-71
2023/03/25 08:21:41;;;;;;;0.40;0.37;;;16.30;93.20;;;;;;4958292;28;20185;-66
2023/03/25 08:24:07;;;;;;;1.07;0.40;;;15.60;94.10;;;;;;4957813;28;20217;-66
2023/03/25 08:26:33;;;;;;;0.73;0.50;;;15.00;95.50;;;;;;4958182;28;20730;-68
2023/03/25 08:29:01;;;;;;;0.40;0.40;;;14.90;96.10;;;;;;4958139;28;20211;-66
2023/03/25 08:31:29;;;;;;;0.40;0.40;;;14.80;95.90;;;;;;4958285;28;20910;-68
2023/03/25 08:33:57;;;;;;;0.50;0.40;;;14.80;96.20;;;;;;4957691;28;20903;-66
2023/03/25 08:36:22;;;;;;;0.40;0.40;;;14.70;96.00;;;;;;4958080;28;20912;-68
2023/03/25 08:38:49;;;;;;;0.40;0.40;;;14.40;96.00;;;;;;4958494;28;20420;-65
2023/03/25 08:41:15;;;;;;;1.53;0.60;;;14.30;96.10;;;;;;4957644;28;20184;-68
2023/03/25 08:43:41;;;;;;;1.13;1.00;;;14.20;96.80;;;;;;4957517;28;20420;-65
2023/03/25 08:46:07;;;;;;;1.13;0.57;;;14.10;97.00;;;;;;4957810;28;20960;-68
2023/03/25 08:48:32;;;;;;;1.43;0.90;;;13.80;97.30;;;;;;4957640;28;20179;-64
2023/03/25 08:50:58;;;;;;;2.63;1.10;;;13.60;97.80;;;;;;4957240;28;20429;-66
2023/03/25 08:53:24;;;;;;;5.17;0.83;;;13.20;98.40;;;;;;4957335;28;20531;-65
2023/03/25 08:55:55;;;;;;;0.50;0.40;;;13.00;99.60;;;;;;4957550;28;20239;-66
2023/03/25 08:58:21;;;;;;;0.70;0.53;;;12.90;99.40;;;;;;4956411;28;20424;-63
2023/03/25 09:00:53;;;;;;;0.60;0.50;;;12.50;99.90;;;;;;4957734;28;20492;-65
2023/03/25 09:03:20;;;;;;;0.70;0.40;;;12.30;99.90;;;;;;4957383;28;20416;-66
2023/03/25 09:05:46;;;;;;;5.03;0.73;;;12.10;99.90;;;;;;4955634;28;20474;-62
2023/03/25 09:08:12;;;;;;;0.30;0.30;;;12.00;99.90;;;;;;4957428;28;20465;-67
2023/03/25 09:10:37;;;;;;;1.43;0.40;;;11.80;99.90;;;;;;4957615;28;20861;-63
2023/03/25 09:13:03;;;;;;;0.37;0.37;;;11.50;99.90;;;;;;4957157;28;20521;-67
2023/03/25 09:15:29;;;;;;;0.33;0.33;;;11.20;99.90;;;;;;4957247;28;20313;-64
2023/03/25 09:17:55;;;;;;;0.50;0.50;;;10.90;99.90;;;;;;4956758;28;20435;-67
2023/03/25 09:20:20;;;;;;;0.93;0.93;;;10.70;99.90;;;;;;4956897;28;20785;-66
2023/03/25 09:22:46;;;;;;;0.70;0.70;;;10.50;99.90;;;;;;4957177;28;20240;-67
2023/03/25 09:25:12;;;;;;;0.43;0.43;;;10.80;99.90;;;;;;4956639;28;20200;-66
2023/03/25 09:27:39;;;;;;;0.63;0.63;;;11.90;99.90;;;;;;4957192;28;20223;-69
2023/03/25 09:30:06;;;;;;;0.50;0.50;;;12.80;99.90;;;;;;4957020;28;20419;-65
2023/03/25 09:32:31;;;;;;;0.40;0.40;;;13.40;99.90;;;;;;4956945;28;20999;-68
2023/03/25 09:34:57;;;;;;;0.30;0.30;;;13.60;99.90;;;;;;4956368;28;20525;-69
2023/03/25 09:37:22;;;;;;;0.60;0.40;;;13.70;99.90;;;;;;4957140;28;20185;-68
2023/03/25 09:39:48;;;;;;;0.40;0.30;;;13.50;99.90;;;;;;4956510;28;20272;-65
2023/03/25 09:42:52;;;;;;;2.10;0.40;;;13.50;99.90;;;;;;4956702;28;20192;-68
2023/03/25 09:45:33;;;;;;;0.43;0.37;;;13.50;99.90;;;;;;4956288;28;20207;-64
2023/03/25 09:48:25;;;;;;;0.80;0.50;;;13.50;99.90;;;;;;4956768;28;20522;-67
2023/03/25 09:50:51;;;;;;;0.40;0.30;;;13.60;99.90;;;;;;4955461;28;20426;-66
2023/03/25 09:53:23;;;;;;;0.40;0.40;;;14.60;99.90;;;;;;4954704;28;20931;-65
2023/03/25 09:55:50;;;;;;;0.70;0.70;;;15.40;99.90;;;;;;4956764;28;20197;-69
2023/03/25 09:58:25;;;;;;;0.50;0.50;;;15.50;99.90;;;;;;4956407;28;20408;-65
2023/03/25 10:01:13;;;;;;;1.93;1.30;;;15.80;99.90;;;;;;4955149;28;20374;-68
2023/03/25 10:03:54;;;;;;;0.30;0.30;;;16.10;99.80;;;;;;4955974;28;20441;-66
2023/03/25 10:06:25;;;;;;;0.50;0.50;;;16.20;98.80;;;;;;4956131;28;20434;-66
2023/03/25 10:08:55;;;;;;;0.93;0.70;;;15.90;98.50;;;;;;4956183;28;20409;-64
2023/03/25 10:11:21;;;;;;;0.67;0.67;;;15.50;99.60;;;;;;4956401;28;20428;-67
2023/03/25 10:14:02;;;;;;;2.40;1.57;;;15.10;99.90;;;;;;4956006;28;20818;-62
2023/03/25 10:16:36;;;;;;;0.60;0.60;;;14.90;99.90;;;;;;4956058;28;20275;-67
2023/03/25 10:19:20;;;;;;;0.40;0.40;;;14.80;99.90;;;;;;4956159;28;20391;-64
2023/03/25 10:22:16;;;;;;;1.10;0.97;;;14.50;99.90;;;;;;4956065;28;20404;-64
2023/03/25 10:24:52;;;;;;;1.30;0.70;;;14.10;99.90;;;;;;4955632;28;20440;-65
2023/03/25 10:27:40;;;;;;;0.90;0.60;;;14.00;99.90;;;;;;4956960;28;20473;-67
2023/03/25 10:30:12;;;;;;;0.80;0.70;;;14.00;99.90;;;;;;4956279;28;20422;-65
2023/03/25 10:32:45;;;;;;;0.40;0.40;;;14.50;99.90;;;;;;4956422;28;20477;-69
2023/03/25 10:35:18;;;;;;;0.50;0.50;;;15.60;99.90;;;;;;4955855;28;20455;-65
2023/03/25 10:37:46;;;;;;;1.57;0.70;;;16.50;99.90;;;;;;4956472;28;20425;-65
2023/03/25 10:40:15;;;;;;;0.50;0.50;;;16.80;98.50;;;;;;4955980;28;20429;-66
2023/03/25 10:42:56;;;;;;;0.73;0.70;;;16.80;97.90;;;;;;4956042;28;20937;-67
2023/03/25 10:45:23;;;;;;;0.60;0.60;;;16.90;96.70;;;;;;4955769;28;20432;-65
2023/03/25 10:47:50;;;;;;;0.30;0.30;;;16.90;97.00;;;;;;4955220;28;20544;-65
2023/03/25 10:50:18;;;;;;;1.83;0.63;;;16.90;95.90;;;;;;4955659;28;20408;-64
2023/03/25 10:52:47;;;;;;;1.00;0.87;;;16.60;96.10;;;;;;4955722;28;20871;-67
2023/03/25 10:55:30;;;;;;;0.60;0.60;;;16.30;96.80;;;;;;4955338;28;20434;-65
2023/03/25 10:57:56;;;;;;;0.83;0.70;;;15.80;96.80;;;;;;4955857;28;20779;-65
2023/03/25 11:00:25;;;;;;;0.70;0.70;;;15.70;97.10;;;;;;4955531;28;20452;-63
2023/03/25 11:02:50;;;;;;;0.70;0.70;;;15.60;97.30;;;;;;4953966;28;20432;-65
2023/03/25 11:05:21;;;;;;;1.03;0.63;;;15.30;96.60;;;;;;4950369;29;20466;-66
2023/03/25 11:07:54;;;;;;;0.30;0.30;;;15.00;96.70;;;;;;4955336;28;20716;-65
2023/03/25 11:10:28;;;;;;;0.60;0.60;;;14.90;97.00;;;;;;4954975;28;20841;-66
2023/03/25 11:12:57;;;;;;;0.60;0.60;;;14.70;97.30;;;;;;4953324;29;20427;-64
2023/03/25 11:15:30;;;;;;;0.50;0.50;;;14.50;97.60;;;;;;4951414;28;20428;-66
2023/03/25 11:17:59;;;;;;;2.10;0.70;;;14.30;98.20;;;;;;4954076;29;20509;-64
2023/03/25 11:20:35;;;;;;;1.07;0.97;;;14.20;97.80;;;;;;4954906;28;20391;-63
2023/03/25 11:23:15;;;;;;;5.20;0.77;;;14.10;97.30;;;;;;4954823;28;20424;-64
2023/03/25 11:25:42;;;;;;;0.70;0.60;;;13.90;97.30;;;;;;4954824;28;20499;-64
2023/03/25 11:28:37;;;;;;;0.50;0.50;;;13.80;98.30;;;;;;4955085;28;20539;-65
2023/03/25 11:31:15;;;;;;;1.07;0.47;;;13.90;98.50;;;;;;4953143;29;20424;-65
2023/03/25 11:33:44;;;;;;;0.53;0.53;;;13.90;98.50;;;;;;4952728;28;20420;-64
2023/03/25 11:36:20;;;;;;;0.77;0.77;;;14.10;98.80;;;;;;4955161;28;20897;-67
2023/03/25 11:38:52;;;;;;;1.00;0.80;;;14.20;99.50;;;;;;4955322;28;20495;-64
2023/03/25 11:41:18;;;;;;;0.40;0.40;;;14.40;98.80;;;;;;4955334;28;20428;-65
2023/03/25 11:43:47;;;;;;;0.30;0.30;;;14.40;98.20;;;;;;4958408;28;20807;-65
2023/03/25 11:46:17;;;;;;;1.53;0.50;;;14.50;97.90;;;;;;4958905;28;20498;-65
2023/03/25 11:48:49;;;;;;;0.60;0.60;;;14.40;97.20;;;;;;4957162;29;20430;-67
2023/03/25 11:51:33;;;;;;;0.53;0.50;;;14.40;97.30;;;;;;4943595;29;20435;-66
2023/03/25 11:54:16;;;;;;;1.53;0.90;;;14.50;97.10;;;;;;4948023;28;20423;-67
2023/03/25 11:56:47;;;;;;;0.50;0.50;;;14.70;98.20;;;;;;4956679;29;20436;-66
2023/03/25 11:59:34;;;;;;;0.67;0.50;;;15.00;97.00;;;;;;4956994;29;20404;-66
2023/03/25 12:02:15;;;;;;;1.77;0.70;;;15.20;96.20;;;;;;4954310;28;20436;-66
2023/03/25 12:05:00;;;;;;;0.40;0.40;;;15.30;96.60;;;;;;4956960;28;20443;-65
2023/03/25 12:07:26;;;;;;;0.50;0.50;;;15.40;96.20;;;;;;4949377;29;20465;-67
2023/03/25 12:10:05;;;;;;;0.60;0.60;;;15.30;95.10;;;;;;4956275;29;20975;-66
2023/03/25 12:12:51;;;;;;;0.97;0.50;;;15.40;94.80;;;;;;4958125;28;20198;-66
2023/03/25 12:15:31;;;;;;;1.30;0.60;;;15.50;94.30;;;;;;4957982;28;20481;-66
2023/03/25 12:18:06;;;;;;;0.50;0.50;;;15.40;93.70;;;;;;4957471;28;20431;-64
2023/03/25 12:20:44;;;;;;;1.37;0.60;;;15.30;93.40;;;;;;4957571;28;20510;-64
2023/03/25 12:23:13;;;;;;;1.57;1.57;;;15.10;93.90;;;;;;4957276;28;20911;-65
2023/03/25 12:25:53;;;;;;;0.60;0.50;;;15.00;94.70;;;;;;4956625;28;20448;-62
2023/03/25 12:28:43;;;;;;;2.87;1.00;;;15.00;94.80;;;;;;4958146;28;20440;-65
2023/03/25 12:31:37;;;;;;;0.50;0.50;;;14.90;94.20;;;;;;4954803;28;20958;-63
2023/03/25 12:34:38;;;;;;;0.93;0.83;;;14.80;94.40;;;;;;4950036;29;20448;-68
2023/03/25 12:37:48;;;;;;;0.50;0.50;;;14.60;94.40;;;;;;4953593;29;20436;-64
2023/03/25 12:40:22;;;;;;;0.50;0.50;;;14.50;94.40;;;;;;4920556;29;20436;-64
2023/03/25 12:43:16;;;;;;;1.60;0.70;;;14.50;94.90;;;;;;4957577;29;20439;-67
2023/03/25 12:46:19;;;;;;;0.60;0.57;;;14.50;94.80;;;;;;4957620;28;20451;-66
2023/03/25 12:48:55;;;;;;;1.80;0.80;;;14.50;94.60;;;;;;4957011;28;20428;-64
2023/03/25 12:51:47;;;;;;;0.40;0.40;;;14.50;95.20;;;;;;4956157;29;20456;-63
2023/03/25 12:54:16;;;;;;;2.00;0.50;;;14.50;95.70;;;;;;4955166;28;20444;-65
2023/03/25 12:56:50;;;;;;;0.83;0.50;;;14.40;96.70;;;;;;4957387;28;20408;-63
2023/03/25 12:59:25;;;;;;;0.80;0.80;;;14.30;98.70;;;;;;4957279;28;20806;-67
2023/03/25 13:02:12;;;;;;;0.50;0.50;;;14.10;99.10;;;;;;4957884;28;20751;-65
2023/03/25 13:05:14;;;;;;;0.50;0.40;;;13.90;99.90;;;;;;4956687;28;20432;-63
2023/03/25 13:07:52;;;;;;;0.50;0.50;;;13.80;99.90;;;;;;4955739;28;20452;-67
2023/03/25 13:10:27;;;;;;;0.40;0.40;;;13.80;99.90;;;;;;4951808;29;20424;-63
2023/03/25 13:12:58;;;;;;;0.57;0.57;;;13.70;99.90;;;;;;4955641;28;20837;-64
2023/03/25 13:15:37;;;;;;;0.40;0.40;;;13.70;99.90;;;;;;4956868;28;20534;-64
2023/03/25 13:18:16;;;;;;;0.70;0.50;;;13.60;99.90;;;;;;4957078;28;20872;-65
2023/03/25 13:20:50;;;;;;;0.87;0.57;;;13.60;99.90;;;;;;4954463;28;20457;-64
2023/03/25 13:23:20;;;;;;;0.47;0.47;;;13.60;99.90;;;;;;4955842;28;21367;-63
2023/03/25 13:26:00;;;;;;;1.23;0.50;;;13.60;99.60;;;;;;4956856;28;20813;-62
2023/03/25 13:28:39;;;;;;;0.63;0.63;;;13.60;99.20;;;;;;4955426;29;20431;-65
2023/03/25 13:31:10;;;;;;;0.50;0.50;;;13.60;99.30;;;;;;4956617;28;20806;-68
2023/03/25 13:33:43;;;;;;;1.43;0.87;;;13.60;98.70;;;;;;4956214;28;20424;-65
2023/03/25 13:36:26;;;;;;;2.03;0.80;;;13.60;98.70;;;;;;4956870;28;20428;-67
2023/03/25 13:39:16;;;;;;;1.10;0.70;;;13.60;99.10;;;;;;4956718;28;20431;-65
2023/03/25 13:41:50;;;;;;;1.23;0.40;;;13.60;98.60;;;;;;4956443;28;20444;-67
2023/03/25 13:44:26;;;;;;;1.30;0.40;;;13.70;98.40;;;;;;4954782;28;20444;-67
2023/03/25 13:47:13;;;;;;;0.50;0.50;;;13.80;98.10;;;;;;4955493;29;20540;-64
2023/03/25 13:49:47;;;;;;;3.03;0.60;;;14.10;98.40;;;;;;4956466;28;20436;-68
2023/03/25 13:52:14;;;;;;;0.60;0.47;;;14.20;97.90;;;;;;4956147;28;20786;-68
2023/03/25 13:55:10;;;;;;;0.40;0.40;;;14.30;97.80;;;;;;4951530;28;20503;-67
2023/03/25 13:57:57;;;;;;;0.60;0.60;;;14.20;97.30;;;;;;4951974;29;20539;-65
2023/03/25 14:00:46;;;;;;;3.60;0.70;;;14.10;97.20;;;;;;4956631;28;20435;-65
2023/03/25 14:03:33;;;;;;;0.60;0.60;;;13.90;97.00;;;;;;4954019;28;20818;-66
2023/03/25 14:06:08;;;;;;;0.60;0.60;;;13.80;96.60;;;;;;4954155;28;20467;-64
2023/03/25 14:09:06;;;;;;;1.33;0.60;;;13.70;97.20;;;;;;4950105;29;20431;-63
2023/03/25 14:11:47;;;;;;;2.20;0.53;;;13.70;96.70;;;;;;4952972;29;20431;-67
2023/03/25 14:14:22;;;;;;;2.37;0.40;;;13.60;96.60;;;;;;4946614;29;20464;-62
2023/03/25 14:16:57;;;;;;;1.57;0.50;;;13.60;97.00;;;;;;4941383;29;20480;-66
2023/03/25 14:19:38;;;;;;;0.50;0.50;;;13.60;96.90;;;;;;4944928;28;20901;-68
2023/03/25 14:22:16;;;;;;;3.37;0.60;;;13.50;97.80;;;;;;4951078;28;20442;-64
2023/03/25 14:24:44;;;;;;;1.37;0.60;;;13.20;99.00;;;;;;4955010;28;20420;-67
2023/03/25 14:27:28;;;;;;;0.87;0.60;;;12.90;99.90;;;;;;4955003;29;20516;-64
2023/03/25 14:30:03;;;;;;;4.07;2.20;;;12.50;99.90;;;;;;4951138;28;20951;-65
2023/03/25 14:32:31;;;;;;;1.33;0.77;;;12.20;99.90;;;;;;4955615;28;20426;-64
2023/03/25 14:35:45;;;;;;;0.90;0.90;;;12.20;99.90;;;;;;4954511;28;20553;-66
2023/03/25 14:38:20;;;;;;;0.90;0.70;;;12.30;99.90;;;;;;4941170;29;20423;-64
2023/03/25 14:40:50;;;;;;;1.47;0.97;;;12.50;99.90;;;;;;4955721;28;20430;-64
2023/03/25 14:43:32;;;;;;;1.70;1.10;;;12.70;99.90;;;;;;4954731;28;20427;-63
2023/03/25 14:46:09;;;;;;;1.60;1.40;;;12.70;99.90;;;;;;4951302;29;20443;-64
2023/03/25 14:48:43;;;;;;;4.10;1.00;;;12.80;99.40;;;;;;4955555;28;20434;-63
2023/03/25 14:51:26;;;;;;;0.70;0.70;;;12.80;99.20;;;;;;4955117;28;20425;-64
2023/03/25 14:54:15;;;;;;;3.53;2.67;;;12.80;98.70;;;;;;4954415;28;20885;-67
2023/03/25 14:57:10;;;;;;;1.37;1.20;;;12.80;99.00;;;;;;4953723;28;20821;-64
2023/03/25 14:59:48;;;;;;;2.47;1.40;;;12.90;98.90;;;;;;4953086;28;20817;-64
2023/03/25 15:02:35;;;;;;;1.83;0.80;;;12.90;98.40;;;;;;4939875;29;20425;-65
2023/03/25 15:05:20;;;;;;;0.80;0.80;;;13.00;98.80;;;;;;4952048;28;20469;-64
2023/03/25 15:08:00;;;;;;;0.93;0.60;;;13.00;98.50;;;;;;4948496;29;20868;-66
2023/03/25 15:10:30;;;;;;;6.63;1.53;;;13.10;98.40;;;;;;4955382;28;20778;-66
2023/03/25 15:13:20;;;;;;;1.20;1.10;;;13.10;98.40;;;;;;4954221;28;20441;-65
2023/03/25 15:15:50;;;;;;;2.00;1.23;;;13.20;98.60;;;;;;4948077;28;20444;-65
2023/03/25 15:18:34;;;;;;;1.63;1.53;;;13.30;98.20;;;;;;4954903;28;20423;-62
2023/03/25 15:21:09;;;;;;;0.63;0.63;;;13.30;97.80;;;;;;4955303;28;20418;-66
2023/03/25 15:23:48;;;;;;;2.60;0.97;;;13.40;96.90;;;;;;4954718;28;20429;-65
2023/03/25 15:26:29;;;;;;;1.20;0.60;;;13.30;96.50;;;;;;4954792;28;20438;-64
2023/03/25 15:29:19;;;;;;;1.70;1.60;;;13.30;96.50;;;;;;4953094;28;20434;-65
2023/03/25 15:32:07;;;;;;;0.97;0.97;;;13.40;97.20;;;;;;4954772;28;20445;-64
2023/03/25 15:34:40;;;;;;;0.57;0.57;;;13.40;95.80;;;;;;4953829;28;20517;-65
2023/03/25 15:37:21;;;;;;;3.77;1.30;;;13.40;96.10;;;;;;4954155;28;20426;-67
2023/03/25 15:40:18;;;;;;;1.67;0.83;;;13.40;95.80;;;;;;4954704;28;20431;-65
2023/03/25 15:43:02;;;;;;;6.03;1.07;;;13.50;95.80;;;;;;4954870;29;20440;-69
2023/03/25 15:45:47;;;;;;;3.40;1.27;;;13.50;95.80;;;;;;4954545;28;20458;-64
2023/03/25 15:48:31;;;;;;;1.53;1.20;;;13.50;95.80;;;;;;4955138;28;20957;-66
2023/03/25 15:51:16;;;;;;;0.60;0.60;;;13.50;95.40;;;;;;4935849;29;20423;-65
2023/03/25 15:53:57;;;;;;;1.17;0.73;;;13.60;95.80;;;;;;4952505;29;20415;-64
2023/03/25 15:56:28;;;;;;;0.90;0.60;;;13.80;96.10;;;;;;4954676;28;21008;-66
2023/03/25 15:59:21;;;;;;;3.40;1.33;;;13.80;95.80;;;;;;4954935;28;20498;-65
2023/03/25 16:01:50;;;;;;;1.67;0.70;;;13.90;95.80;;;;;;4955098;28;20403;-64
2023/03/25 16:04:18;;;;;;;3.17;1.10;;;14.00;95.50;;;;;;4954442;28;20776;-66
2023/03/25 16:06:49;;;;;;;0.70;0.60;;;14.10;96.50;;;;;;4954244;28;20547;-66
2023/03/25 16:09:23;;;;;;;0.73;0.70;;;14.20;94.80;;;;;;4955226;28;20397;-66
2023/03/25 16:11:49;;;;;;;0.90;0.77;;;14.20;94.70;;;;;;4954976;28;20416;-63
2023/03/25 16:14:19;;;;;;;1.03;1.00;;;14.20;94.70;;;;;;4953123;28;20499;-65
2023/03/25 16:16:53;;;;;;;1.23;0.90;;;14.10;94.70;;;;;;4954736;28;20431;-63
2023/03/25 16:19:24;;;;;;;5.30;0.87;;;14.10;95.10;;;;;;4954013;28;20874;-65
2023/03/25 16:21:52;;;;;;;0.70;0.70;;;14.10;94.70;;;;;;4944076;29;20917;-65
2023/03/25 16:24:23;;;;;;;0.67;0.60;;;14.10;94.80;;;;;;4945625;28;20511;-65
2023/03/25 16:26:50;;;;;;;0.43;0.43;;;14.10;94.40;;;;;;4954740;28;20464;-62
2023/03/25 16:29:24;;;;;;;1.63;0.60;;;14.10;93.40;;;;;;4956029;28;20507;-64
2023/03/25 16:31:56;;;;;;;2.47;0.70;;;14.10;93.20;;;;;;4958359;28;20563;-65
2023/03/25 16:34:22;;;;;;;3.43;1.60;;;14.10;93.40;;;;;;4957477;28;20440;-68
2023/03/25 16:36:51;;;;;;;1.20;1.10;;;13.90;93.20;;;;;;4958208;28;20423;-67
2023/03/25 16:39:17;;;;;;;0.70;0.70;;;13.80;93.20;;;;;;4958097;28;20454;-64
2023/03/25 16:41:49;;;;;;;0.90;0.90;;;13.70;93.10;;;;;;4958014;28;20426;-62
2023/03/25 16:44:19;;;;;;;0.60;0.60;;;13.50;92.90;;;;;;4957232;28;20447;-64
2023/03/25 16:46:45;;;;;;;1.93;1.00;;;13.40;93.10;;;;;;4957509;28;20469;-63
2023/03/25 16:49:25;;;;;;;5.37;0.87;;;13.20;93.20;;;;;;4958038;28;20541;-69
2023/03/25 16:51:52;;;;;;;1.03;0.87;;;13.10;93.30;;;;;;4957766;28;20983;-67
2023/03/25 16:54:30;;;;;;;1.07;0.97;;;12.90;93.00;;;;;;4955946;28;20483;-66
2023/03/25 16:56:55;;;;;;;1.07;0.70;;;12.80;93.40;;;;;;4956352;28;20425;-63
2023/03/25 16:59:32;;;;;;;2.20;0.90;;;12.70;93.80;;;;;;4956836;28;20957;-66
2023/03/25 17:02:00;;;;;;;0.73;0.70;;;12.60;94.00;;;;;;4957674;28;20171;-63
2023/03/25 17:04:40;;;;;;;1.10;0.93;;;12.50;94.10;;;;;;4956795;28;20446;-64
2023/03/25 17:07:12;;;;;;;2.63;1.20;;;12.40;94.40;;;;;;4957269;28;20461;-65
2023/03/25 17:09:41;;;;;;;1.17;1.00;;;12.30;94.70;;;;;;4957467;28;20461;-63
2023/03/25 17:12:11;;;;;;;1.03;1.03;;;12.30;94.50;;;;;;4956756;29;20406;-63
2023/03/25 17:14:42;;;;;;;0.87;0.87;;;12.30;94.80;;;;;;4956499;28;20450;-63
2023/03/25 17:17:34;;;;;;;1.87;0.80;;;12.20;94.80;;;;;;4957486;28;20422;-64
2023/03/25 17:20:07;;;;;;;1.73;0.80;;;12.20;95.10;;;;;;4954235;29;20426;-64
2023/03/25 17:22:37;;;;;;;1.20;0.73;;;12.20;95.20;;;;;;4957427;28;20743;-65
2023/03/25 17:25:26;;;;;;;1.00;1.00;;;12.10;95.30;;;;;;4956429;28;20211;-63
2023/03/25 17:27:55;;;;;;;0.70;0.70;;;12.10;95.50;;;;;;4956865;28;21415;-66
2023/03/25 17:30:41;;;;;;;0.83;0.77;;;12.10;95.40;;;;;;4956987;28;20420;-64
2023/03/25 17:33:32;;;;;;;1.52;0.70;;;12.00;95.40;;;;;;4956495;28;20766;-64
2023/03/25 17:36:00;;;;;;;0.70;0.70;;;12.00;95.50;;;;;;4956512;28;20205;-65
2023/03/25 17:38:46;;;;;;;2.35;0.70;;;12.00;95.60;;;;;;4956948;28;20190;-62
2023/03/25 17:41:16;;;;;;;1.25;0.50;;;11.90;95.80;;;;;;4956057;28;20179;-64
2023/03/25 17:43:48;;;;;;;1.10;1.10;;;11.90;95.80;;;;;;4956654;28;20182;-65
2023/03/25 17:46:23;;;;;;;1.00;1.00;;;11.80;96.00;;;;;;4956686;28;20675;-67
2023/03/25 17:48:52;;;;;;;0.85;0.85;;;11.80;96.10;;;;;;4955752;28;20190;-68
2023/03/25 17:51:19;;;;;;;0.70;0.70;;;11.70;96.30;;;;;;4956331;28;20190;-63
2023/03/25 17:53:45;;;;;;;1.13;1.02;;;11.60;96.40;;;;;;4956312;28;20535;-62
2023/03/25 17:56:12;;;;;;;1.10;0.95;;;11.60;96.70;;;;;;4956461;28;20182;-64
2023/03/25 17:58:38;;;;;;;0.77;0.77;;;11.50;97.40;;;;;;4956866;28;20178;-62
2023/03/25 18:01:04;;;;;;;0.87;0.60;;;11.40;97.10;;;;;;4955103;28;20206;-66
2023/03/25 18:03:33;;;;;;;0.67;0.67;;;11.40;97.20;;;;;;4956197;28;20753;-65
2023/03/25 18:05:59;;;;;;;0.60;0.60;;;11.40;97.40;;;;;;4956215;28;20966;-65
2023/03/25 18:08:26;;;;;;;0.97;0.87;;;11.40;97.60;;;;;;4956031;28;20214;-64
2023/03/25 18:10:53;;;;;;;0.93;0.68;;;11.30;97.40;;;;;;4955770;28;20417;-65
2023/03/25 18:13:21;;;;;;;0.47;0.47;;;11.40;97.40;;;;;;4956142;28;20649;-63
2023/03/25 18:15:50;;;;;;;1.00;0.77;;;11.40;97.50;;;;;;4955971;28;20192;-63
2023/03/25 18:18:18;;;;;;;1.40;1.30;;;11.40;97.90;;;;;;4956436;28;20221;-63
2023/03/25 18:20:45;;;;;;;2.30;0.52;;;11.40;97.90;;;;;;4956407;28;20231;-62